Time;durP1;ratioP1;P1;durP2;ratioP2;P2;SDS_P1;SDS_P2;PMS_P1;PMS_P2;Temp;Humidity;BMP_temperature;BMP_pressure;BME280_temperature;BME280_humidity;BME280_pressure;Samples;Min_cycle;Max_cycle;Signal;HPM_P1;HPM_P2
2023/12/01 00:00:58;;;;;;;28.60;18.47;;;4.10;99.90;;;;;;5030909;28;20586;-76
2023/12/01 00:03:23;;;;;;;25.30;14.80;;;4.10;99.90;;;;;;5048259;28;20189;-75
2023/12/01 00:05:49;;;;;;;19.80;14.73;;;4.00;99.90;;;;;;5048432;28;20187;-75
2023/12/01 00:08:15;;;;;;;20.57;14.80;;;4.00;99.90;;;;;;5048148;28;20196;-76
2023/12/01 00:10:40;;;;;;;18.27;13.40;;;4.00;99.90;;;;;;5030080;27;20677;-76
2023/12/01 00:13:06;;;;;;;14.67;11.10;;;3.90;99.90;;;;;;5030032;28;20264;-76
2023/12/01 00:15:32;;;;;;;15.87;12.43;;;3.90;99.90;;;;;;5028606;28;20178;-76
2023/12/01 00:17:58;;;;;;;15.57;12.43;;;3.80;99.90;;;;;;5047510;27;20184;-76
2023/12/01 00:20:24;;;;;;;14.70;12.05;;;3.70;99.90;;;;;;5046452;27;20673;-76
2023/12/01 00:22:51;;;;;;;16.63;13.43;;;3.60;99.90;;;;;;5029618;28;20180;-76
2023/12/01 00:25:17;;;;;;;16.63;12.13;;;3.50;99.90;;;;;;5013217;28;20177;-76
2023/12/01 00:27:43;;;;;;;15.10;11.00;;;3.40;99.90;;;;;;5047060;27;20185;-74
2023/12/01 00:30:09;;;;;;;14.60;10.83;;;3.30;99.90;;;;;;5013388;28;20599;-75
2023/12/01 00:32:34;;;;;;;15.97;11.50;;;3.20;99.90;;;;;;5029936;28;20217;-75
2023/12/01 00:35:00;;;;;;;20.40;13.20;;;3.10;99.90;;;;;;5030428;28;20572;-75
2023/12/01 00:37:26;;;;;;;17.23;11.55;;;3.10;99.90;;;;;;5030004;28;20256;-75
2023/12/01 00:39:52;;;;;;;15.40;11.37;;;3.00;99.90;;;;;;5048065;28;20220;-75
2023/12/01 00:42:18;;;;;;;17.37;12.57;;;2.90;99.90;;;;;;5029726;28;20177;-75
2023/12/01 00:44:45;;;;;;;17.30;13.23;;;2.90;99.90;;;;;;5012274;27;20241;-75
2023/12/01 00:47:10;;;;;;;18.90;13.73;;;2.80;99.90;;;;;;5030023;28;20187;-75
2023/12/01 00:49:36;;;;;;;18.80;13.97;;;2.80;99.90;;;;;;5012133;27;20705;-75
2023/12/01 00:52:04;;;;;;;21.70;13.60;;;2.80;99.90;;;;;;5015278;28;20176;-75
2023/12/01 00:54:30;;;;;;;21.63;15.23;;;2.70;99.90;;;;;;5013459;28;20627;-76
2023/12/01 00:56:55;;;;;;;18.38;13.63;;;2.70;99.90;;;;;;5005967;28;20669;-75
2023/12/01 00:59:21;;;;;;;20.57;14.83;;;2.70;99.90;;;;;;5009388;28;20289;-75
2023/12/01 01:01:47;;;;;;;21.37;15.10;;;2.70;99.90;;;;;;5011400;27;20627;-76
2023/12/01 01:04:13;;;;;;;23.45;16.25;;;2.70;99.90;;;;;;5023312;28;20230;-76
2023/12/01 01:06:39;;;;;;;20.87;14.23;;;2.70;99.90;;;;;;5009052;27;20173;-76
2023/12/01 01:09:04;;;;;;;21.27;14.33;;;2.70;99.90;;;;;;5046954;27;20600;-75
2023/12/01 01:11:30;;;;;;;19.17;14.60;;;2.70;99.90;;;;;;5025753;28;20690;-75
2023/12/01 01:13:56;;;;;;;26.10;16.45;;;2.80;99.90;;;;;;5038528;27;20207;-76
2023/12/01 01:16:22;;;;;;;20.50;15.90;;;2.80;99.90;;;;;;5009879;28;20602;-76
2023/12/01 01:18:48;;;;;;;24.65;16.40;;;2.90;99.90;;;;;;5028310;28;20201;-76
2023/12/01 01:21:14;;;;;;;22.13;17.07;;;2.90;99.90;;;;;;5029645;28;20177;-75
2023/12/01 01:23:40;;;;;;;27.30;16.87;;;3.00;99.90;;;;;;4996595;28;20590;-75
2023/12/01 01:26:07;;;;;;;27.33;17.67;;;3.00;99.90;;;;;;5029626;28;20523;-75
2023/12/01 01:28:32;;;;;;;28.92;19.17;;;3.10;99.90;;;;;;5031200;27;20699;-75
2023/12/01 01:30:58;;;;;;;24.00;15.43;;;3.10;99.90;;;;;;5013222;28;20239;-75
2023/12/01 01:33:24;;;;;;;27.23;19.63;;;3.20;99.90;;;;;;5012783;28;20618;-76
2023/12/01 01:35:50;;;;;;;27.30;18.23;;;3.20;99.90;;;;;;5029377;28;20169;-76
2023/12/01 01:38:15;;;;;;;29.77;17.80;;;3.20;99.90;;;;;;5029237;28;20554;-76
2023/12/01 01:40:42;;;;;;;31.50;19.03;;;3.30;99.90;;;;;;5011258;27;20203;-76
2023/12/01 01:43:08;;;;;;;24.55;16.48;;;3.30;99.90;;;;;;5032677;28;20642;-76
2023/12/01 01:45:33;;;;;;;25.90;17.10;;;3.40;99.90;;;;;;5016290;28;20190;-76
2023/12/01 01:47:59;;;;;;;29.63;18.60;;;3.40;99.90;;;;;;5016349;28;20173;-76
2023/12/01 01:50:26;;;;;;;26.10;17.60;;;3.50;99.90;;;;;;5016181;28;20265;-76
2023/12/01 01:52:54;;;;;;;30.20;20.35;;;3.50;99.90;;;;;;5016045;28;20586;-76
2023/12/01 01:55:21;;;;;;;30.98;19.88;;;3.60;99.90;;;;;;5008253;28;20180;-75
2023/12/01 01:57:48;;;;;;;25.60;18.00;;;3.60;99.90;;;;;;5032655;28;20226;-75
2023/12/01 02:00:16;;;;;;;28.95;18.65;;;3.60;99.90;;;;;;5016214;28;20204;-76
2023/12/01 02:02:42;;;;;;;34.83;22.63;;;3.70;99.90;;;;;;5032421;28;20260;-75
2023/12/01 02:05:13;;;;;;;26.30;17.50;;;3.70;99.90;;;;;;5017695;28;20237;-75
2023/12/01 02:07:39;;;;;;;27.20;17.15;;;3.70;99.90;;;;;;5029075;28;20199;-76
2023/12/01 02:10:06;;;;;;;25.98;16.38;;;3.70;99.90;;;;;;5101871;28;20299;-75
2023/12/01 02:12:32;;;;;;;25.17;17.92;;;3.70;99.90;;;;;;5042784;27;20569;-76
2023/12/01 02:14:58;;;;;;;30.40;19.33;;;3.70;99.90;;;;;;5015945;28;20351;-76
2023/12/01 02:17:23;;;;;;;29.40;17.67;;;3.80;99.90;;;;;;5015671;28;21148;-76
2023/12/01 02:19:51;;;;;;;24.90;18.57;;;3.80;99.90;;;;;;5016012;28;20239;-76
2023/12/01 02:22:17;;;;;;;26.42;17.60;;;3.90;99.90;;;;;;5015619;28;20176;-76
2023/12/01 02:24:43;;;;;;;27.05;17.27;;;3.90;99.90;;;;;;5015875;28;20200;-76
2023/12/01 02:27:09;;;;;;;26.77;19.50;;;3.90;99.90;;;;;;5015826;28;20608;-76
2023/12/01 02:29:34;;;;;;;31.70;20.87;;;3.90;99.90;;;;;;5015696;28;20225;-76
2023/12/01 02:32:00;;;;;;;33.60;20.27;;;3.90;99.90;;;;;;5031162;28;20603;-76
2023/12/01 02:34:26;;;;;;;30.95;21.15;;;4.00;99.90;;;;;;5015611;28;20711;-76
2023/12/01 02:36:53;;;;;;;25.40;18.43;;;4.00;99.90;;;;;;5031282;27;20267;-76
2023/12/01 02:39:19;;;;;;;32.35;21.40;;;4.00;99.90;;;;;;5031188;28;20207;-76
2023/12/01 02:41:45;;;;;;;29.75;19.65;;;4.00;99.90;;;;;;5013264;27;20180;-76
2023/12/01 02:44:11;;;;;;;29.37;19.57;;;4.00;99.90;;;;;;5017170;28;20650;-76
2023/12/01 02:46:37;;;;;;;32.33;21.20;;;4.00;99.90;;;;;;5049741;28;20591;-76
2023/12/01 02:49:02;;;;;;;30.47;19.43;;;4.00;99.90;;;;;;5023276;28;20231;-76
2023/12/01 02:51:28;;;;;;;28.80;19.80;;;4.10;99.90;;;;;;5031869;28;20205;-76
2023/12/01 02:53:54;;;;;;;24.70;17.80;;;4.10;99.90;;;;;;5013938;28;20583;-76
2023/12/01 02:56:20;;;;;;;26.13;19.53;;;4.10;99.90;;;;;;5023570;28;20173;-76
2023/12/01 02:58:45;;;;;;;23.43;16.10;;;4.10;99.90;;;;;;5015416;28;20189;-75
2023/12/01 03:01:11;;;;;;;22.50;14.87;;;4.10;99.90;;;;;;5015433;28;20180;-76
2023/12/01 03:03:37;;;;;;;24.80;18.00;;;4.00;99.90;;;;;;5101338;28;20660;-75
2023/12/01 03:06:03;;;;;;;27.90;18.30;;;4.00;99.90;;;;;;5037951;27;20230;-76
2023/12/01 03:08:28;;;;;;;26.25;17.02;;;3.90;99.90;;;;;;5049196;28;20284;-76
2023/12/01 03:10:54;;;;;;;25.23;18.37;;;3.80;99.90;;;;;;5025484;27;20280;-75
2023/12/01 03:13:21;;;;;;;27.07;18.00;;;3.70;99.90;;;;;;5031000;28;20274;-76
2023/12/01 03:15:46;;;;;;;26.45;18.35;;;3.70;99.90;;;;;;5033661;28;20609;-76
2023/12/01 03:18:13;;;;;;;24.67;19.23;;;3.70;99.90;;;;;;5054284;28;20165;-76
2023/12/01 03:20:39;;;;;;;26.90;17.23;;;3.60;99.90;;;;;;5022276;28;20204;-76
2023/12/01 03:23:04;;;;;;;26.13;16.23;;;3.60;99.90;;;;;;5032590;28;20274;-76
2023/12/01 03:25:30;;;;;;;26.77;19.37;;;3.60;99.90;;;;;;5036615;28;20180;-76
2023/12/01 03:27:56;;;;;;;26.10;18.80;;;3.60;99.90;;;;;;4998450;28;20538;-75
2023/12/01 03:30:22;;;;;;;29.40;18.33;;;3.50;99.90;;;;;;5015018;28;20279;-76
2023/12/01 03:32:51;;;;;;;23.10;16.15;;;3.40;99.90;;;;;;5014431;28;20177;-76
2023/12/01 03:35:20;;;;;;;26.40;19.10;;;3.40;99.90;;;;;;5015028;28;20218;-74
2023/12/01 03:37:46;;;;;;;26.17;16.42;;;3.40;99.90;;;;;;5031255;28;20578;-76
2023/12/01 03:40:12;;;;;;;29.95;20.08;;;3.30;99.90;;;;;;5011528;28;20193;-76
2023/12/01 03:42:47;;;;;;;27.02;17.80;;;3.30;99.90;;;;;;5027577;28;20185;-75
2023/12/01 03:45:13;;;;;;;24.90;17.02;;;3.20;99.90;;;;;;5031200;28;20222;-76
2023/12/01 03:47:47;;;;;;;21.73;15.30;;;3.20;99.90;;;;;;5011187;28;20707;-76
2023/12/01 03:50:13;;;;;;;24.88;15.32;;;3.20;99.90;;;;;;5017068;28;20340;-75
2023/12/01 03:52:41;;;;;;;22.50;14.40;;;3.20;99.90;;;;;;4978420;28;20208;-75
2023/12/01 03:55:08;;;;;;;20.50;13.95;;;3.20;99.90;;;;;;5021071;28;20182;-75
2023/12/01 03:57:33;;;;;;;17.63;14.15;;;3.20;99.90;;;;;;5051127;27;20166;-75
2023/12/01 03:59:59;;;;;;;18.93;15.37;;;3.30;99.90;;;;;;5015035;28;20733;-75
2023/12/01 04:02:25;;;;;;;21.17;13.87;;;3.30;99.90;;;;;;4991518;28;20606;-75
2023/12/01 04:04:51;;;;;;;22.38;15.70;;;3.30;99.90;;;;;;5022162;28;20625;-75
2023/12/01 04:07:19;;;;;;;21.40;14.05;;;3.30;99.90;;;;;;5004741;28;20181;-75
2023/12/01 04:09:45;;;;;;;22.70;15.23;;;3.30;99.90;;;;;;5028421;28;20198;-75
2023/12/01 04:12:11;;;;;;;22.73;16.55;;;3.30;99.90;;;;;;4998011;28;20179;-75
2023/12/01 04:14:37;;;;;;;26.05;16.98;;;3.30;99.90;;;;;;5079690;28;20181;-75
2023/12/01 04:17:08;;;;;;;23.73;15.83;;;3.20;99.90;;;;;;5028211;28;20205;-75
2023/12/01 04:19:36;;;;;;;24.48;17.30;;;3.20;99.90;;;;;;5011656;28;20201;-75
2023/12/01 04:22:04;;;;;;;22.95;16.10;;;3.20;99.90;;;;;;5010884;28;20178;-76
2023/12/01 04:24:35;;;;;;;25.13;17.52;;;3.20;99.90;;;;;;4996679;28;20186;-75
2023/12/01 04:27:04;;;;;;;22.20;15.52;;;3.20;99.90;;;;;;4995935;28;20181;-74
2023/12/01 04:29:31;;;;;;;24.75;17.35;;;3.20;99.90;;;;;;5062972;27;20190;-75
2023/12/01 04:31:57;;;;;;;24.65;17.55;;;3.20;99.90;;;;;;5035975;28;20552;-76
2023/12/01 04:34:26;;;;;;;25.80;18.27;;;3.20;99.90;;;;;;5030524;28;20736;-75
2023/12/01 04:36:53;;;;;;;22.55;15.30;;;3.20;99.90;;;;;;5010501;28;20177;-75
2023/12/01 04:39:20;;;;;;;19.05;14.48;;;3.20;99.90;;;;;;5026812;28;20200;-75
2023/12/01 04:41:50;;;;;;;22.77;15.40;;;3.20;99.90;;;;;;4994115;28;20181;-75
2023/12/01 04:44:16;;;;;;;24.25;17.88;;;3.20;99.90;;;;;;5010267;28;20188;-75
2023/12/01 04:46:41;;;;;;;23.27;17.33;;;3.20;99.90;;;;;;5007141;28;20178;-75
2023/12/01 04:49:08;;;;;;;23.07;14.27;;;3.20;99.90;;;;;;5035482;28;20724;-74
2023/12/01 04:51:36;;;;;;;22.42;15.45;;;3.20;99.90;;;;;;5095959;28;20547;-74
2023/12/01 04:54:05;;;;;;;22.58;15.07;;;3.20;99.90;;;;;;5095958;28;20174;-75
2023/12/01 04:56:31;;;;;;;21.67;16.00;;;3.20;99.90;;;;;;5096411;28;20654;-75
2023/12/01 04:58:57;;;;;;;27.17;17.73;;;3.20;99.90;;;;;;5027892;28;20326;-75
2023/12/01 05:01:22;;;;;;;25.67;16.63;;;3.20;99.90;;;;;;5076263;28;20601;-75
2023/12/01 05:03:48;;;;;;;25.67;16.53;;;3.20;99.90;;;;;;5092974;28;20188;-75
2023/12/01 05:06:14;;;;;;;23.67;15.57;;;3.20;99.90;;;;;;5096192;28;20663;-75
2023/12/01 05:08:39;;;;;;;20.80;14.20;;;3.20;99.90;;;;;;5095713;28;20620;-74
2023/12/01 05:11:05;;;;;;;26.23;17.53;;;3.20;99.90;;;;;;5097217;28;20253;-74
2023/12/01 05:13:31;;;;;;;21.20;15.43;;;3.20;99.90;;;;;;5027905;28;20181;-74
2023/12/01 05:15:56;;;;;;;25.00;16.00;;;3.20;99.90;;;;;;5095362;28;20581;-74
2023/12/01 05:18:22;;;;;;;23.43;16.10;;;3.20;99.90;;;;;;5027567;28;20173;-74
2023/12/01 05:20:48;;;;;;;23.10;16.67;;;3.20;99.90;;;;;;5078852;28;20189;-75
2023/12/01 05:23:14;;;;;;;23.03;15.40;;;3.20;99.90;;;;;;5078751;28;20182;-75
2023/12/01 05:25:44;;;;;;;21.15;14.38;;;3.20;99.90;;;;;;5035547;28;20577;-75
2023/12/01 05:28:10;;;;;;;19.42;13.63;;;3.20;99.90;;;;;;5095177;28;20613;-74
2023/12/01 05:30:40;;;;;;;24.95;15.95;;;3.20;99.90;;;;;;5095376;28;20220;-74
2023/12/01 05:33:09;;;;;;;20.10;14.10;;;3.20;99.90;;;;;;5078110;28;20749;-74
2023/12/01 05:35:36;;;;;;;18.65;12.85;;;3.30;99.90;;;;;;5078753;28;20260;-75
2023/12/01 05:38:04;;;;;;;18.80;12.50;;;3.30;99.90;;;;;;5078714;28;20182;-74
2023/12/01 05:40:30;;;;;;;18.92;12.93;;;3.40;99.90;;;;;;5074501;28;20205;-74
2023/12/01 05:42:58;;;;;;;20.48;14.75;;;3.40;99.90;;;;;;5075209;28;20177;-74
2023/12/01 05:45:26;;;;;;;19.35;12.70;;;3.40;99.90;;;;;;5095820;28;20182;-75
2023/12/01 05:47:52;;;;;;;20.52;13.40;;;3.40;99.90;;;;;;5094795;28;20177;-76
2023/12/01 05:50:23;;;;;;;19.27;15.55;;;3.50;99.90;;;;;;5033016;28;20212;-75
2023/12/01 05:52:51;;;;;;;19.05;13.65;;;3.50;99.90;;;;;;5028378;28;20181;-76
2023/12/01 05:55:33;;;;;;;21.83;13.75;;;3.50;99.90;;;;;;5028790;28;20249;-75
2023/12/01 05:58:06;;;;;;;17.88;13.05;;;3.50;99.90;;;;;;5012041;27;20208;-76
2023/12/01 06:00:32;;;;;;;19.70;13.73;;;3.50;99.90;;;;;;5028473;28;20225;-76
2023/12/01 06:03:00;;;;;;;17.73;13.37;;;3.50;99.90;;;;;;5020762;28;20232;-76
2023/12/01 06:05:27;;;;;;;20.00;11.85;;;3.50;99.90;;;;;;5029416;28;20676;-76
2023/12/01 06:07:54;;;;;;;19.92;12.55;;;3.50;99.90;;;;;;5029028;27;20665;-76
2023/12/01 06:10:22;;;;;;;17.05;12.80;;;3.50;99.90;;;;;;5045968;27;20253;-76
2023/12/01 06:12:48;;;;;;;21.50;13.82;;;3.50;99.90;;;;;;5038656;27;20173;-76
2023/12/01 06:15:16;;;;;;;16.83;11.47;;;3.60;99.90;;;;;;5038576;28;20286;-76
2023/12/01 06:17:44;;;;;;;16.02;12.00;;;3.60;99.90;;;;;;5028605;28;20609;-75
2023/12/01 06:20:17;;;;;;;18.13;12.77;;;3.60;99.90;;;;;;5028724;28;20556;-75
2023/12/01 06:23:05;;;;;;;19.27;13.90;;;3.60;99.90;;;;;;5028627;28;20260;-76
2023/12/01 06:25:32;;;;;;;16.50;12.80;;;3.50;99.90;;;;;;5026132;28;20173;-76
2023/12/01 06:28:01;;;;;;;16.10;11.27;;;3.50;99.90;;;;;;5033483;28;20173;-76
2023/12/01 06:30:28;;;;;;;16.08;11.65;;;3.60;99.90;;;;;;5031713;28;20193;-76
2023/12/01 06:32:55;;;;;;;16.63;10.75;;;3.60;99.90;;;;;;5031806;28;20571;-76
2023/12/01 06:35:22;;;;;;;14.63;10.48;;;3.60;99.90;;;;;;5049732;27;20579;-76
2023/12/01 06:37:48;;;;;;;14.75;11.73;;;3.70;99.90;;;;;;5030680;28;20181;-76
2023/12/01 06:40:17;;;;;;;17.83;13.60;;;3.70;99.90;;;;;;5039022;27;20325;-76
2023/12/01 06:42:48;;;;;;;15.52;11.27;;;3.70;99.90;;;;;;5031655;28;20268;-75
2023/12/01 06:45:17;;;;;;;15.93;12.38;;;3.70;99.90;;;;;;5031590;28;20170;-76
2023/12/01 06:47:46;;;;;;;16.50;9.63;;;3.70;99.90;;;;;;5041812;27;20177;-76
2023/12/01 06:50:14;;;;;;;15.52;11.68;;;3.70;99.90;;;;;;5030854;28;20231;-75
2023/12/01 06:52:40;;;;;;;16.77;12.25;;;3.60;99.90;;;;;;5049414;28;20258;-76
2023/12/01 06:55:07;;;;;;;16.38;12.68;;;3.60;99.90;;;;;;5031513;28;20218;-75
2023/12/01 06:57:38;;;;;;;14.63;10.45;;;3.60;99.90;;;;;;5049597;27;20177;-76
2023/12/01 07:00:07;;;;;;;15.73;10.27;;;3.60;99.90;;;;;;5031419;28;20193;-76
2023/12/01 07:02:39;;;;;;;11.50;9.10;;;3.60;99.90;;;;;;5033845;28;20165;-76
2023/12/01 07:05:08;;;;;;;13.93;10.43;;;3.70;99.90;;;;;;5031222;28;20169;-75
2023/12/01 07:07:37;;;;;;;16.50;11.70;;;3.70;99.90;;;;;;5043584;27;20170;-75
2023/12/01 07:10:05;;;;;;;10.70;9.00;;;3.70;99.90;;;;;;5009157;27;20230;-75
2023/12/01 07:12:30;;;;;;;13.38;10.18;;;3.70;99.90;;;;;;5029651;28;20173;-75
2023/12/01 07:14:56;;;;;;;13.97;8.70;;;3.80;99.90;;;;;;5030648;28;20531;-75
2023/12/01 07:17:22;;;;;;;13.75;9.30;;;3.80;99.90;;;;;;5030623;28;20184;-76
2023/12/01 07:19:48;;;;;;;10.53;8.90;;;3.80;99.90;;;;;;5030603;28;20205;-76
2023/12/01 07:22:14;;;;;;;13.63;9.30;;;3.80;99.90;;;;;;5030516;28;20181;-76
2023/12/01 07:24:40;;;;;;;13.13;9.87;;;3.80;99.90;;;;;;5031544;28;20169;-77
2023/12/01 07:27:09;;;;;;;12.88;9.23;;;3.80;99.90;;;;;;5049135;28;20587;-75
2023/12/01 07:29:38;;;;;;;13.60;9.80;;;3.90;99.90;;;;;;5030803;28;20193;-77
2023/12/01 07:32:05;;;;;;;16.83;11.05;;;3.90;99.90;;;;;;5030920;28;20201;-76
2023/12/01 07:34:30;;;;;;;13.25;9.30;;;3.80;99.90;;;;;;5030738;28;20256;-76
2023/12/01 07:36:56;;;;;;;11.90;7.90;;;3.80;99.90;;;;;;5049083;28;20311;-76
2023/12/01 07:39:23;;;;;;;7.43;6.20;;;3.70;99.90;;;;;;5014295;28;20212;-76
2023/12/01 07:41:50;;;;;;;9.43;6.55;;;3.70;99.90;;;;;;5049920;27;20177;-76
2023/12/01 07:44:16;;;;;;;7.68;5.32;;;3.70;99.90;;;;;;5028694;28;20173;-76
2023/12/01 07:46:41;;;;;;;8.90;5.90;;;3.70;99.90;;;;;;5049043;28;20176;-76
2023/12/01 07:49:11;;;;;;;7.50;5.77;;;3.70;99.90;;;;;;5030813;28;20251;-76
2023/12/01 07:51:38;;;;;;;7.68;5.40;;;3.70;99.90;;;;;;5030431;28;20624;-76
2023/12/01 07:54:05;;;;;;;11.32;6.32;;;3.70;99.90;;;;;;5039628;27;20209;-76
2023/12/01 07:56:31;;;;;;;8.38;6.10;;;3.70;99.90;;;;;;5030751;28;20256;-75
2023/12/01 07:58:57;;;;;;;8.67;6.60;;;3.70;99.90;;;;;;5024361;27;20284;-75
2023/12/01 08:01:23;;;;;;;9.40;7.22;;;3.70;99.90;;;;;;5030765;28;20177;-75
2023/12/01 08:03:49;;;;;;;9.83;6.53;;;3.70;99.90;;;;;;5048581;27;20177;-76
2023/12/01 08:06:15;;;;;;;8.03;6.87;;;3.70;99.90;;;;;;5030801;28;20271;-75
2023/12/01 08:08:41;;;;;;;7.30;6.40;;;3.80;99.90;;;;;;5030530;28;20205;-75
2023/12/01 08:11:07;;;;;;;11.80;7.07;;;3.70;99.90;;;;;;5014108;28;20620;-76
2023/12/01 08:13:34;;;;;;;10.37;8.10;;;3.70;99.90;;;;;;5030483;28;20165;-75
2023/12/01 08:16:00;;;;;;;10.80;7.32;;;3.60;99.90;;;;;;5030630;28;20580;-76
2023/12/01 08:18:26;;;;;;;8.25;6.30;;;3.60;99.90;;;;;;4999650;28;20251;-75
2023/12/01 08:20:52;;;;;;;8.80;6.77;;;3.60;99.90;;;;;;5048508;28;20558;-75
2023/12/01 08:23:18;;;;;;;8.70;6.30;;;3.60;99.90;;;;;;5030298;28;20662;-74
2023/12/01 08:25:44;;;;;;;9.90;6.80;;;3.60;99.90;;;;;;5048195;28;20542;-75
2023/12/01 08:28:10;;;;;;;8.57;6.20;;;3.60;99.90;;;;;;5047671;28;20587;-75
2023/12/01 08:30:36;;;;;;;9.75;5.88;;;3.60;99.90;;;;;;5042038;28;20588;-75
2023/12/01 08:33:03;;;;;;;10.45;5.93;;;3.70;99.90;;;;;;5029855;28;20259;-75
2023/12/01 08:35:29;;;;;;;7.00;4.53;;;3.70;99.90;;;;;;5030371;28;20260;-76
2023/12/01 08:37:55;;;;;;;9.60;6.67;;;3.70;99.90;;;;;;5030193;28;20318;-75
2023/12/01 08:40:21;;;;;;;8.98;6.80;;;3.70;99.90;;;;;;5013291;27;20283;-76
2023/12/01 08:42:48;;;;;;;11.90;6.90;;;3.60;99.90;;;;;;5029526;28;20690;-75
2023/12/01 08:45:13;;;;;;;7.78;5.63;;;3.60;99.90;;;;;;5010861;27;20753;-76
2023/12/01 08:47:42;;;;;;;7.13;5.40;;;3.60;99.90;;;;;;4996002;28;20268;-76
2023/12/01 08:50:10;;;;;;;9.07;6.07;;;3.60;99.90;;;;;;5102490;28;20214;-76
2023/12/01 08:52:43;;;;;;;8.82;6.70;;;3.60;99.90;;;;;;5112848;27;20185;-76
2023/12/01 08:55:10;;;;;;;11.27;7.13;;;3.60;99.90;;;;;;5115222;27;20202;-76
2023/12/01 08:57:37;;;;;;;9.45;5.93;;;3.60;99.90;;;;;;5113478;27;20258;-75
2023/12/01 09:00:03;;;;;;;7.90;5.80;;;3.60;99.90;;;;;;5113432;27;20205;-75
2023/12/01 09:02:29;;;;;;;8.10;5.80;;;3.60;99.90;;;;;;5131834;27;20489;-76
2023/12/01 09:04:54;;;;;;;9.93;7.00;;;3.50;99.90;;;;;;5113400;27;20261;-76
2023/12/01 09:07:20;;;;;;;9.13;6.40;;;3.50;99.90;;;;;;5131575;27;20569;-76
2023/12/01 09:09:45;;;;;;;9.70;6.20;;;3.40;99.90;;;;;;5108058;28;20238;-76
2023/12/01 09:12:11;;;;;;;7.93;5.03;;;3.40;99.90;;;;;;5129646;27;20202;-77
2023/12/01 09:14:37;;;;;;;8.43;5.50;;;3.40;99.90;;;;;;5113243;28;20186;-76
2023/12/01 09:17:03;;;;;;;8.17;5.50;;;3.40;99.90;;;;;;5131475;27;20181;-76
2023/12/01 09:19:29;;;;;;;8.70;5.50;;;3.50;99.90;;;;;;5131901;28;20642;-77
2023/12/01 09:21:55;;;;;;;9.05;5.80;;;3.50;99.90;;;;;;5113571;28;21171;-76
2023/12/01 09:24:21;;;;;;;9.40;6.87;;;3.50;99.90;;;;;;5112867;28;20201;-76
2023/12/01 09:26:46;;;;;;;8.07;5.53;;;3.40;99.90;;;;;;5107519;28;20188;-77
2023/12/01 09:29:12;;;;;;;7.30;4.80;;;3.50;99.90;;;;;;5111054;28;20202;-76
2023/12/01 09:31:48;;;;;;;13.00;7.50;;;3.50;99.90;;;;;;5135383;28;20202;-76
2023/12/01 09:34:14;;;;;;;6.57;5.78;;;3.50;99.90;;;;;;5113239;28;20185;-76
2023/12/01 09:36:43;;;;;;;7.93;5.97;;;3.50;99.90;;;;;;5107489;28;20170;-76
2023/12/01 09:39:08;;;;;;;6.63;4.85;;;3.50;99.90;;;;;;5094706;28;20194;-76
2023/12/01 09:41:35;;;;;;;8.60;6.30;;;3.50;99.90;;;;;;5114824;28;20181;-77
2023/12/01 09:44:02;;;;;;;8.55;5.35;;;3.40;99.90;;;;;;5132359;28;20694;-75
2023/12/01 09:46:34;;;;;;;8.40;5.32;;;3.30;99.90;;;;;;5124414;28;20193;-76
2023/12/01 09:49:02;;;;;;;8.38;5.40;;;3.30;99.90;;;;;;5080265;28;20311;-76
2023/12/01 09:51:28;;;;;;;7.43;5.35;;;3.30;99.90;;;;;;5106239;28;20269;-75
2023/12/01 09:53:54;;;;;;;6.70;5.47;;;3.30;99.90;;;;;;5101059;28;20222;-75
2023/12/01 09:56:19;;;;;;;9.33;6.53;;;3.40;99.90;;;;;;5033571;28;20186;-75
2023/12/01 09:58:46;;;;;;;7.83;5.80;;;3.40;99.90;;;;;;5100886;28;20213;-76
2023/12/01 10:01:14;;;;;;;8.48;6.65;;;3.40;99.90;;;;;;5030580;28;20245;-76
2023/12/01 10:03:39;;;;;;;8.40;5.50;;;3.40;99.90;;;;;;5083198;28;20182;-76
2023/12/01 10:06:07;;;;;;;7.43;5.57;;;3.40;99.90;;;;;;5101164;28;20268;-76
2023/12/01 10:08:34;;;;;;;10.27;6.65;;;3.40;99.90;;;;;;5100921;28;20205;-76
2023/12/01 10:11:00;;;;;;;10.00;6.45;;;3.40;99.90;;;;;;5101682;28;20242;-75
2023/12/01 10:13:39;;;;;;;8.63;5.22;;;3.40;99.90;;;;;;5085428;28;20174;-76
2023/12/01 10:16:05;;;;;;;7.25;6.45;;;3.40;99.90;;;;;;5102566;28;20522;-75
2023/12/01 10:18:31;;;;;;;6.78;5.03;;;3.40;99.90;;;;;;5097544;28;20170;-75
2023/12/01 10:20:59;;;;;;;7.65;5.75;;;3.50;99.90;;;;;;5026811;28;20235;-75
2023/12/01 10:23:27;;;;;;;7.95;6.30;;;3.60;99.90;;;;;;5082049;28;20185;-76
2023/12/01 10:25:53;;;;;;;8.77;5.90;;;3.60;99.90;;;;;;5099346;28;20174;-76
2023/12/01 10:28:19;;;;;;;8.85;5.30;;;3.70;99.90;;;;;;5081341;28;20174;-76
2023/12/01 10:30:57;;;;;;;8.05;5.90;;;3.70;99.90;;;;;;5099200;28;20202;-74
2023/12/01 10:33:24;;;;;;;7.47;5.15;;;3.70;99.90;;;;;;5030115;28;20189;-74
2023/12/01 10:36:01;;;;;;;8.35;5.60;;;3.70;99.90;;;;;;5030201;28;20260;-75
2023/12/01 10:38:28;;;;;;;9.73;6.72;;;3.70;99.90;;;;;;5098399;28;20177;-74
2023/12/01 10:40:55;;;;;;;7.55;5.05;;;3.80;99.90;;;;;;5012395;28;20285;-75
2023/12/01 10:43:21;;;;;;;11.98;6.00;;;3.80;99.90;;;;;;5098208;28;20209;-75
2023/12/01 10:45:50;;;;;;;7.88;6.50;;;3.80;99.90;;;;;;5030549;28;20186;-74
2023/12/01 10:48:20;;;;;;;10.15;5.97;;;3.90;99.90;;;;;;5111577;27;20182;-75
2023/12/01 10:50:47;;;;;;;10.93;6.40;;;3.80;99.90;;;;;;5115893;27;20718;-75
2023/12/01 10:53:18;;;;;;;7.75;5.47;;;3.70;99.90;;;;;;5115558;27;20255;-75
2023/12/01 10:55:47;;;;;;;6.82;4.97;;;3.70;99.90;;;;;;5134331;27;20189;-75
2023/12/01 10:58:25;;;;;;;9.25;4.38;;;3.80;99.90;;;;;;5133698;27;20647;-75
2023/12/01 11:00:53;;;;;;;5.25;4.00;;;3.70;99.90;;;;;;5116434;27;20265;-76
2023/12/01 11:03:25;;;;;;;6.50;4.40;;;3.70;99.90;;;;;;5115644;27;20178;-74
2023/12/01 11:05:55;;;;;;;5.28;3.92;;;3.80;99.90;;;;;;5134335;27;20174;-75
2023/12/01 11:08:35;;;;;;;5.13;4.25;;;3.90;99.90;;;;;;5115136;27;20178;-76
2023/12/01 11:11:35;;;;;;;6.20;4.63;;;3.90;99.90;;;;;;5133794;27;20198;-73
2023/12/01 11:14:19;;;;;;;4.28;3.88;;;3.90;99.90;;;;;;5109814;27;20167;-75
2023/12/01 11:16:48;;;;;;;4.45;3.65;;;4.00;99.90;;;;;;5108927;27;20170;-75
2023/12/01 11:19:18;;;;;;;5.65;4.40;;;4.10;99.90;;;;;;5133368;27;20235;-75
2023/12/01 11:21:49;;;;;;;6.40;4.10;;;4.10;99.90;;;;;;5133788;27;20314;-76
2023/12/01 11:24:39;;;;;;;9.90;4.40;;;4.20;99.90;;;;;;5133863;27;20174;-75
2023/12/01 11:27:07;;;;;;;9.73;4.55;;;4.20;99.90;;;;;;5115426;27;20170;-76
2023/12/01 11:29:35;;;;;;;10.63;5.75;;;4.20;99.90;;;;;;5112672;27;20199;-76
2023/12/01 11:32:03;;;;;;;5.63;3.42;;;4.30;99.90;;;;;;5133293;27;20186;-76
2023/12/01 11:34:30;;;;;;;4.70;3.15;;;4.20;99.90;;;;;;5115076;27;20223;-75
2023/12/01 11:37:05;;;;;;;5.35;3.35;;;4.20;99.90;;;;;;5114926;27;20170;-74
2023/12/01 11:39:31;;;;;;;3.40;2.58;;;4.30;99.90;;;;;;5133027;27;20197;-76
2023/12/01 11:42:02;;;;;;;2.67;2.07;;;4.30;99.90;;;;;;5116381;27;20551;-75
2023/12/01 11:44:34;;;;;;;4.68;3.20;;;4.30;99.90;;;;;;5133171;27;20190;-74
2023/12/01 11:47:04;;;;;;;4.30;3.45;;;4.30;99.90;;;;;;5097978;27;20185;-74
2023/12/01 11:49:31;;;;;;;2.92;2.33;;;4.20;99.90;;;;;;5096977;28;20213;-74
2023/12/01 11:51:58;;;;;;;4.13;3.17;;;4.10;99.90;;;;;;5029183;28;20342;-76
2023/12/01 11:54:24;;;;;;;4.35;2.90;;;4.20;99.90;;;;;;5080695;28;20198;-75
2023/12/01 11:56:57;;;;;;;4.32;3.22;;;4.10;99.90;;;;;;5097188;28;20173;-75
2023/12/01 11:59:24;;;;;;;3.75;2.58;;;4.20;99.90;;;;;;5095279;28;20665;-76
2023/12/01 12:01:56;;;;;;;3.65;2.80;;;4.20;99.90;;;;;;5098414;28;20174;-77
2023/12/01 12:04:23;;;;;;;5.70;4.20;;;4.20;99.90;;;;;;5096923;28;20264;-76
2023/12/01 12:06:49;;;;;;;8.77;4.63;;;4.20;99.90;;;;;;5097154;28;20216;-77
2023/12/01 12:09:19;;;;;;;4.25;3.63;;;4.20;99.90;;;;;;5096953;28;20201;-77
2023/12/01 12:11:48;;;;;;;7.25;4.50;;;4.10;99.90;;;;;;5104688;23;20246;-75
2023/12/01 12:14:15;;;;;;;6.78;4.60;;;4.10;99.90;;;;;;5056547;28;20238;-76
2023/12/01 12:16:41;;;;;;;6.15;4.10;;;4.00;99.90;;;;;;5033717;28;20165;-76
2023/12/01 12:19:08;;;;;;;5.70;4.05;;;4.10;99.90;;;;;;5040908;28;20177;-75
2023/12/01 12:21:35;;;;;;;6.25;4.28;;;4.00;99.90;;;;;;5050644;28;20192;-75
2023/12/01 12:24:02;;;;;;;5.35;4.28;;;4.00;99.90;;;;;;5033173;28;20177;-75
2023/12/01 12:26:29;;;;;;;8.85;4.78;;;4.10;99.90;;;;;;5016912;28;20244;-75
2023/12/01 12:28:57;;;;;;;6.47;4.35;;;4.10;99.90;;;;;;5033797;28;20176;-75
2023/12/01 12:31:25;;;;;;;6.22;4.88;;;4.10;99.90;;;;;;5063321;28;20292;-76
2023/12/01 12:34:01;;;;;;;6.60;4.80;;;4.20;99.90;;;;;;5071114;28;20179;-76
2023/12/01 12:36:29;;;;;;;5.85;4.50;;;4.10;99.90;;;;;;5069575;28;20185;-75
2023/12/01 12:38:58;;;;;;;11.02;5.53;;;4.10;99.90;;;;;;5054661;28;20252;-75
2023/12/01 12:41:29;;;;;;;9.90;5.07;;;4.10;99.90;;;;;;5051353;28;20208;-75
2023/12/01 12:43:59;;;;;;;7.32;5.00;;;4.10;99.90;;;;;;5033642;28;20283;-75
2023/12/01 12:46:30;;;;;;;6.75;5.00;;;4.00;99.90;;;;;;5033228;28;20181;-75